sensor_id;sensor_type;location;lat;lon;timestamp;temperature;humidity
52615;DHT22;38508;53.158;6.614;2023-01-19T00:01:30;4.50;99.90
52615;DHT22;38508;53.158;6.614;2023-01-19T00:03:56;4.60;99.90
52615;DHT22;38508;53.158;6.614;2023-01-19T00:06:22;4.50;99.90
52615;DHT22;38508;53.158;6.614;2023-01-19T00:08:48;4.50;99.90
52615;DHT22;38508;53.158;6.614;2023-01-19T00:11:18;4.70;99.90
52615;DHT22;38508;53.158;6.614;2023-01-19T00:13:44;4.70;99.90
52615;DHT22;38508;53.158;6.614;2023-01-19T00:16:19;4.80;99.90
52615;DHT22;38508;53.158;6.614;2023-01-19T00:18:48;4.80;99.90
52615;DHT22;38508;53.158;6.614;2023-01-19T00:21:15;4.70;99.90
52615;DHT22;38508;53.158;6.614;2023-01-19T00:23:41;4.60;99.90
52615;DHT22;38508;53.158;6.614;2023-01-19T00:26:08;4.60;99.90
52615;DHT22;38508;53.158;6.614;2023-01-19T00:28:35;4.50;99.90
52615;DHT22;38508;53.158;6.614;2023-01-19T00:31:01;4.60;99.90
52615;DHT22;38508;53.158;6.614;2023-01-19T00:33:27;4.70;99.90
52615;DHT22;38508;53.158;6.614;2023-01-19T00:35:53;4.70;99.90
52615;DHT22;38508;53.158;6.614;2023-01-19T00:38:21;4.70;99.90
52615;DHT22;38508;53.158;6.614;2023-01-19T00:40:47;4.70;99.90
52615;DHT22;38508;53.158;6.614;2023-01-19T00:43:13;4.70;99.90
52615;DHT22;38508;53.158;6.614;2023-01-19T00:45:39;4.70;99.90
52615;DHT22;38508;53.158;6.614;2023-01-19T00:48:04;4.80;99.90
52615;DHT22;38508;53.158;6.614;2023-01-19T00:50:31;4.70;99.90
52615;DHT22;38508;53.158;6.614;2023-01-19T00:52:58;4.70;99.90
52615;DHT22;38508;53.158;6.614;2023-01-19T00:55:27;4.70;99.90
52615;DHT22;38508;53.158;6.614;2023-01-19T00:57:53;4.70;99.90
52615;DHT22;38508;53.158;6.614;2023-01-19T01:00:20;4.60;99.90
52615;DHT22;38508;53.158;6.614;2023-01-19T01:02:47;4.60;99.90
52615;DHT22;38508;53.158;6.614;2023-01-19T01:05:14;4.70;99.90
52615;DHT22;38508;53.158;6.614;2023-01-19T01:07:40;4.80;99.90
52615;DHT22;38508;53.158;6.614;2023-01-19T01:10:09;4.70;99.90
52615;DHT22;38508;53.158;6.614;2023-01-19T01:12:36;4.80;99.90
52615;DHT22;38508;53.158;6.614;2023-01-19T01:15:06;4.80;99.90
52615;DHT22;38508;53.158;6.614;2023-01-19T01:17:32;4.90;99.90
52615;DHT22;38508;53.158;6.614;2023-01-19T01:19:58;4.70;99.90
52615;DHT22;38508;53.158;6.614;2023-01-19T01:22:24;4.80;99.90
52615;DHT22;38508;53.158;6.614;2023-01-19T01:24:50;4.90;99.90
52615;DHT22;38508;53.158;6.614;2023-01-19T01:27:16;4.90;99.90
52615;DHT22;38508;53.158;6.614;2023-01-19T01:29:41;4.90;99.90
52615;DHT22;38508;53.158;6.614;2023-01-19T01:32:12;4.90;99.90
52615;DHT22;38508;53.158;6.614;2023-01-19T01:34:38;4.90;99.90
52615;DHT22;38508;53.158;6.614;2023-01-19T01:37:04;5.00;99.90
52615;DHT22;38508;53.158;6.614;2023-01-19T01:39:35;4.80;99.90
52615;DHT22;38508;53.158;6.614;2023-01-19T01:42:02;4.70;99.90
52615;DHT22;38508;53.158;6.614;2023-01-19T01:44:56;4.70;99.90
52615;DHT22;38508;53.158;6.614;2023-01-19T01:47:41;4.60;99.90
52615;DHT22;38508;53.158;6.614;2023-01-19T01:50:18;4.50;99.90
52615;DHT22;38508;53.158;6.614;2023-01-19T01:53:01;4.50;99.90
52615;DHT22;38508;53.158;6.614;2023-01-19T01:55:28;4.50;99.90
52615;DHT22;38508;53.158;6.614;2023-01-19T01:58:00;4.60;99.90
52615;DHT22;38508;53.158;6.614;2023-01-19T02:00:27;4.70;99.90
52615;DHT22;38508;53.158;6.614;2023-01-19T02:03:13;4.60;99.90
52615;DHT22;38508;53.158;6.614;2023-01-19T02:05:40;4.60;99.90
52615;DHT22;38508;53.158;6.614;2023-01-19T02:08:07;4.60;99.90
52615;DHT22;38508;53.158;6.614;2023-01-19T02:10:53;4.60;99.90
52615;DHT22;38508;53.158;6.614;2023-01-19T02:13:40;4.70;99.90
52615;DHT22;38508;53.158;6.614;2023-01-19T02:16:09;4.80;99.90
52615;DHT22;38508;53.158;6.614;2023-01-19T02:18:35;4.70;99.90
52615;DHT22;38508;53.158;6.614;2023-01-19T02:28:49;4.50;99.90
52615;DHT22;38508;53.158;6.614;2023-01-19T02:31:17;4.40;99.90
52615;DHT22;38508;53.158;6.614;2023-01-19T02:33:43;4.50;99.90
52615;DHT22;38508;53.158;6.614;2023-01-19T02:36:10;4.50;99.90
52615;DHT22;38508;53.158;6.614;2023-01-19T02:38:37;4.40;99.90
52615;DHT22;38508;53.158;6.614;2023-01-19T02:41:05;4.40;99.90
52615;DHT22;38508;53.158;6.614;2023-01-19T02:43:32;4.40;99.90
52615;DHT22;38508;53.158;6.614;2023-01-19T02:45:59;4.60;99.90
52615;DHT22;38508;53.158;6.614;2023-01-19T02:48:24;4.60;99.90
52615;DHT22;38508;53.158;6.614;2023-01-19T02:50:56;4.60;99.90
52615;DHT22;38508;53.158;6.614;2023-01-19T02:59:15;4.80;99.90
52615;DHT22;38508;53.158;6.614;2023-01-19T03:07:14;4.70;99.90
52615;DHT22;38508;53.158;6.614;2023-01-19T03:10:04;4.50;99.90
52615;DHT22;38508;53.158;6.614;2023-01-19T03:17:49;4.70;99.90
52615;DHT22;38508;53.158;6.614;2023-01-19T03:20:20;4.80;99.90
52615;DHT22;38508;53.158;6.614;2023-01-19T03:22:52;4.80;99.90
52615;DHT22;38508;53.158;6.614;2023-01-19T03:25:20;4.80;99.90
52615;DHT22;38508;53.158;6.614;2023-01-19T03:27:49;4.80;99.90
52615;DHT22;38508;53.158;6.614;2023-01-19T03:30:21;4.80;99.90
52615;DHT22;38508;53.158;6.614;2023-01-19T03:32:58;4.70;99.90
52615;DHT22;38508;53.158;6.614;2023-01-19T03:35:28;4.70;99.90
52615;DHT22;38508;53.158;6.614;2023-01-19T03:37:55;4.70;99.90
52615;DHT22;38508;53.158;6.614;2023-01-19T03:40:28;4.70;99.90
52615;DHT22;38508;53.158;6.614;2023-01-19T03:42:55;4.80;99.90
52615;DHT22;38508;53.158;6.614;2023-01-19T03:45:21;4.90;99.90
52615;DHT22;38508;53.158;6.614;2023-01-19T03:47:48;4.80;99.90
52615;DHT22;38508;53.158;6.614;2023-01-19T03:50:23;4.80;99.90
52615;DHT22;38508;53.158;6.614;2023-01-19T03:53:09;4.90;99.90
52615;DHT22;38508;53.158;6.614;2023-01-19T03:55:37;5.00;99.90
52615;DHT22;38508;53.158;6.614;2023-01-19T03:58:04;5.10;99.90
52615;DHT22;38508;53.158;6.614;2023-01-19T04:00:30;5.10;99.90
52615;DHT22;38508;53.158;6.614;2023-01-19T04:02:55;5.20;99.90
52615;DHT22;38508;53.158;6.614;2023-01-19T04:05:22;5.20;99.90
52615;DHT22;38508;53.158;6.614;2023-01-19T04:07:49;5.20;99.90
52615;DHT22;38508;53.158;6.614;2023-01-19T04:10:16;5.30;99.90
52615;DHT22;38508;53.158;6.614;2023-01-19T04:12:42;5.40;99.90
52615;DHT22;38508;53.158;6.614;2023-01-19T04:15:07;5.40;99.90
52615;DHT22;38508;53.158;6.614;2023-01-19T04:17:33;5.50;99.90
52615;DHT22;38508;53.158;6.614;2023-01-19T04:19:59;5.50;99.90
52615;DHT22;38508;53.158;6.614;2023-01-19T04:22:25;5.50;99.90
52615;DHT22;38508;53.158;6.614;2023-01-19T04:24:51;5.60;99.90
52615;DHT22;38508;53.158;6.614;2023-01-19T04:27:17;5.50;99.90
52615;DHT22;38508;53.158;6.614;2023-01-19T04:29:43;5.60;99.90
52615;DHT22;38508;53.158;6.614;2023-01-19T04:32:08;5.50;99.90
52615;DHT22;38508;53.158;6.614;2023-01-19T04:34:34;5.50;99.90
52615;DHT22;38508;53.158;6.614;2023-01-19T04:37:00;5.60;99.90
52615;DHT22;38508;53.158;6.614;2023-01-19T04:39:25;5.60;99.90
52615;DHT22;38508;53.158;6.614;2023-01-19T04:41:52;5.70;99.90
52615;DHT22;38508;53.158;6.614;2023-01-19T04:44:18;5.70;99.90
52615;DHT22;38508;53.158;6.614;2023-01-19T04:46:43;5.70;99.90
52615;DHT22;38508;53.158;6.614;2023-01-19T04:49:09;5.60;99.90
52615;DHT22;38508;53.158;6.614;2023-01-19T04:51:35;5.70;99.90
52615;DHT22;38508;53.158;6.614;2023-01-19T04:54:01;5.60;99.90
52615;DHT22;38508;53.158;6.614;2023-01-19T04:56:28;5.40;99.90
52615;DHT22;38508;53.158;6.614;2023-01-19T04:58:54;5.50;99.90
52615;DHT22;38508;53.158;6.614;2023-01-19T05:01:19;5.50;99.90
52615;DHT22;38508;53.158;6.614;2023-01-19T05:03:45;5.30;99.90
52615;DHT22;38508;53.158;6.614;2023-01-19T05:06:11;5.30;99.90
52615;DHT22;38508;53.158;6.614;2023-01-19T05:08:37;5.30;99.90
52615;DHT22;38508;53.158;6.614;2023-01-19T05:11:03;5.20;99.90
52615;DHT22;38508;53.158;6.614;2023-01-19T05:13:29;5.30;99.90
52615;DHT22;38508;53.158;6.614;2023-01-19T05:15:55;5.40;99.90
52615;DHT22;38508;53.158;6.614;2023-01-19T05:18:20;5.30;99.90
52615;DHT22;38508;53.158;6.614;2023-01-19T05:20:46;5.40;99.90
52615;DHT22;38508;53.158;6.614;2023-01-19T05:23:12;5.30;99.90
52615;DHT22;38508;53.158;6.614;2023-01-19T05:25:37;5.30;99.90
52615;DHT22;38508;53.158;6.614;2023-01-19T05:28:03;5.30;99.90
52615;DHT22;38508;53.158;6.614;2023-01-19T05:30:29;5.30;99.90
52615;DHT22;38508;53.158;6.614;2023-01-19T05:32:54;5.30;99.90
52615;DHT22;38508;53.158;6.614;2023-01-19T05:35:20;5.10;99.90
52615;DHT22;38508;53.158;6.614;2023-01-19T05:37:46;5.10;99.90
52615;DHT22;38508;53.158;6.614;2023-01-19T05:40:11;5.00;99.90
52615;DHT22;38508;53.158;6.614;2023-01-19T05:42:37;5.10;99.90
52615;DHT22;38508;53.158;6.614;2023-01-19T05:45:04;5.00;99.90
52615;DHT22;38508;53.158;6.614;2023-01-19T05:47:30;5.10;99.90
52615;DHT22;38508;53.158;6.614;2023-01-19T05:49:56;5.00;99.90
52615;DHT22;38508;53.158;6.614;2023-01-19T05:52:22;5.00;99.90
52615;DHT22;38508;53.158;6.614;2023-01-19T05:54:49;5.00;99.90
52615;DHT22;38508;53.158;6.614;2023-01-19T05:57:16;5.00;99.90
52615;DHT22;38508;53.158;6.614;2023-01-19T05:59:42;5.00;99.90
52615;DHT22;38508;53.158;6.614;2023-01-19T06:02:08;4.90;99.90
52615;DHT22;38508;53.158;6.614;2023-01-19T06:04:33;4.80;99.90
52615;DHT22;38508;53.158;6.614;2023-01-19T06:06:59;4.80;99.90
52615;DHT22;38508;53.158;6.614;2023-01-19T06:09:26;4.60;99.90
52615;DHT22;38508;53.158;6.614;2023-01-19T06:11:52;4.80;99.90
52615;DHT22;38508;53.158;6.614;2023-01-19T06:14:22;4.80;99.90
52615;DHT22;38508;53.158;6.614;2023-01-19T06:16:47;4.90;99.90
52615;DHT22;38508;53.158;6.614;2023-01-19T06:19:13;5.00;99.90
52615;DHT22;38508;53.158;6.614;2023-01-19T06:21:39;5.00;99.90
52615;DHT22;38508;53.158;6.614;2023-01-19T06:24:05;4.90;99.90
52615;DHT22;38508;53.158;6.614;2023-01-19T06:26:31;4.90;99.90
52615;DHT22;38508;53.158;6.614;2023-01-19T06:28:56;5.00;99.90
52615;DHT22;38508;53.158;6.614;2023-01-19T06:31:22;5.00;99.90
52615;DHT22;38508;53.158;6.614;2023-01-19T06:33:48;5.20;99.90
52615;DHT22;38508;53.158;6.614;2023-01-19T06:36:14;5.30;99.90
52615;DHT22;38508;53.158;6.614;2023-01-19T06:38:40;5.30;99.90
52615;DHT22;38508;53.158;6.614;2023-01-19T06:41:05;4.80;99.90
52615;DHT22;38508;53.158;6.614;2023-01-19T06:43:31;4.60;99.90
52615;DHT22;38508;53.158;6.614;2023-01-19T06:45:57;4.60;99.90
52615;DHT22;38508;53.158;6.614;2023-01-19T06:48:25;4.70;99.90
52615;DHT22;38508;53.158;6.614;2023-01-19T06:50:50;4.80;99.90
52615;DHT22;38508;53.158;6.614;2023-01-19T06:53:17;4.90;99.90
52615;DHT22;38508;53.158;6.614;2023-01-19T06:55:45;5.00;99.90
52615;DHT22;38508;53.158;6.614;2023-01-19T06:58:11;5.00;99.90
52615;DHT22;38508;53.158;6.614;2023-01-19T07:00:37;4.90;99.90
52615;DHT22;38508;53.158;6.614;2023-01-19T07:03:08;4.90;99.90
52615;DHT22;38508;53.158;6.614;2023-01-19T07:05:34;5.00;99.90
52615;DHT22;38508;53.158;6.614;2023-01-19T07:08:00;4.90;99.90
52615;DHT22;38508;53.158;6.614;2023-01-19T07:10:26;4.90;99.90
52615;DHT22;38508;53.158;6.614;2023-01-19T07:12:52;4.80;99.90
52615;DHT22;38508;53.158;6.614;2023-01-19T07:15:20;4.60;99.90
52615;DHT22;38508;53.158;6.614;2023-01-19T07:17:47;4.60;99.90
52615;DHT22;38508;53.158;6.614;2023-01-19T07:20:13;4.60;99.90
52615;DHT22;38508;53.158;6.614;2023-01-19T07:22:40;4.60;99.90
52615;DHT22;38508;53.158;6.614;2023-01-19T07:25:06;4.60;99.90
52615;DHT22;38508;53.158;6.614;2023-01-19T07:27:32;4.50;99.90
52615;DHT22;38508;53.158;6.614;2023-01-19T07:29:57;4.70;99.90
52615;DHT22;38508;53.158;6.614;2023-01-19T07:32:26;4.70;99.90
52615;DHT22;38508;53.158;6.614;2023-01-19T07:34:52;4.70;99.90
52615;DHT22;38508;53.158;6.614;2023-01-19T07:37:18;4.60;99.90
52615;DHT22;38508;53.158;6.614;2023-01-19T07:39:43;4.60;99.90
52615;DHT22;38508;53.158;6.614;2023-01-19T07:42:09;4.70;99.90
52615;DHT22;38508;53.158;6.614;2023-01-19T07:44:35;4.60;99.90
52615;DHT22;38508;53.158;6.614;2023-01-19T07:47:01;4.60;99.90
52615;DHT22;38508;53.158;6.614;2023-01-19T07:49:27;4.60;99.90
52615;DHT22;38508;53.158;6.614;2023-01-19T07:51:53;4.60;99.90
52615;DHT22;38508;53.158;6.614;2023-01-19T07:54:21;4.50;99.90
52615;DHT22;38508;53.158;6.614;2023-01-19T07:56:47;4.60;99.90
52615;DHT22;38508;53.158;6.614;2023-01-19T07:59:12;4.50;99.90
52615;DHT22;38508;53.158;6.614;2023-01-19T08:01:39;4.50;99.90
52615;DHT22;38508;53.158;6.614;2023-01-19T08:04:05;4.60;99.90
52615;DHT22;38508;53.158;6.614;2023-01-19T08:06:36;4.50;99.90
52615;DHT22;38508;53.158;6.614;2023-01-19T08:09:03;4.60;99.90
52615;DHT22;38508;53.158;6.614;2023-01-19T08:11:32;4.60;99.90
52615;DHT22;38508;53.158;6.614;2023-01-19T08:13:58;4.50;99.90
52615;DHT22;38508;53.158;6.614;2023-01-19T08:16:25;4.60;99.90
52615;DHT22;38508;53.158;6.614;2023-01-19T08:18:52;4.50;99.90
52615;DHT22;38508;53.158;6.614;2023-01-19T08:21:18;4.50;99.90
52615;DHT22;38508;53.158;6.614;2023-01-19T08:23:43;4.50;99.90
52615;DHT22;38508;53.158;6.614;2023-01-19T08:26:32;4.60;99.90
52615;DHT22;38508;53.158;6.614;2023-01-19T08:29:01;4.70;99.90
52615;DHT22;38508;53.158;6.614;2023-01-19T08:31:27;4.80;99.90
52615;DHT22;38508;53.158;6.614;2023-01-19T08:33:52;4.90;99.90
52615;DHT22;38508;53.158;6.614;2023-01-19T08:36:19;4.90;99.90
52615;DHT22;38508;53.158;6.614;2023-01-19T08:38:46;5.00;99.90
52615;DHT22;38508;53.158;6.614;2023-01-19T08:41:12;5.10;99.90
52615;DHT22;38508;53.158;6.614;2023-01-19T08:43:38;5.10;99.90
52615;DHT22;38508;53.158;6.614;2023-01-19T08:46:04;5.30;99.90
52615;DHT22;38508;53.158;6.614;2023-01-19T08:48:30;5.30;99.90
52615;DHT22;38508;53.158;6.614;2023-01-19T08:50:56;5.30;99.90
52615;DHT22;38508;53.158;6.614;2023-01-19T08:53:22;5.30;99.90
52615;DHT22;38508;53.158;6.614;2023-01-19T08:55:57;5.30;99.90
52615;DHT22;38508;53.158;6.614;2023-01-19T08:58:25;5.30;99.90
52615;DHT22;38508;53.158;6.614;2023-01-19T09:00:52;5.30;99.90
52615;DHT22;38508;53.158;6.614;2023-01-19T09:03:18;5.20;99.90
52615;DHT22;38508;53.158;6.614;2023-01-19T09:05:46;5.30;99.90
52615;DHT22;38508;53.158;6.614;2023-01-19T09:08:13;5.40;99.90
52615;DHT22;38508;53.158;6.614;2023-01-19T09:10:46;5.40;99.90
52615;DHT22;38508;53.158;6.614;2023-01-19T09:13:13;5.30;99.90
52615;DHT22;38508;53.158;6.614;2023-01-19T09:15:40;5.30;99.90
52615;DHT22;38508;53.158;6.614;2023-01-19T09:18:09;5.20;99.90
52615;DHT22;38508;53.158;6.614;2023-01-19T09:20:36;5.10;99.90
52615;DHT22;38508;53.158;6.614;2023-01-19T09:23:04;5.10;99.90
52615;DHT22;38508;53.158;6.614;2023-01-19T09:25:30;5.00;99.90
52615;DHT22;38508;53.158;6.614;2023-01-19T09:27:58;5.00;99.90
52615;DHT22;38508;53.158;6.614;2023-01-19T09:30:24;5.00;99.90
52615;DHT22;38508;53.158;6.614;2023-01-19T09:32:52;5.00;99.90
52615;DHT22;38508;53.158;6.614;2023-01-19T09:35:17;5.10;99.90
52615;DHT22;38508;53.158;6.614;2023-01-19T09:37:46;5.00;99.90
52615;DHT22;38508;53.158;6.614;2023-01-19T09:40:13;5.00;99.90
52615;DHT22;38508;53.158;6.614;2023-01-19T09:42:46;5.10;99.90
52615;DHT22;38508;53.158;6.614;2023-01-19T09:45:40;5.10;99.90
52615;DHT22;38508;53.158;6.614;2023-01-19T09:50:55;5.20;99.90
52615;DHT22;38508;53.158;6.614;2023-01-19T09:53:48;5.20;99.90
52615;DHT22;38508;53.158;6.614;2023-01-19T09:56:18;5.20;99.90
52615;DHT22;38508;53.158;6.614;2023-01-19T09:58:45;5.30;99.90
52615;DHT22;38508;53.158;6.614;2023-01-19T10:10:04;5.60;99.90
52615;DHT22;38508;53.158;6.614;2023-01-19T10:12:54;5.50;99.90
52615;DHT22;38508;53.158;6.614;2023-01-19T10:15:42;5.60;99.90
52615;DHT22;38508;53.158;6.614;2023-01-19T10:18:26;5.50;99.90
52615;DHT22;38508;53.158;6.614;2023-01-19T10:29:30;5.90;99.90
52615;DHT22;38508;53.158;6.614;2023-01-19T10:32:24;6.10;99.90
52615;DHT22;38508;53.158;6.614;2023-01-19T10:34:52;6.20;99.90
52615;DHT22;38508;53.158;6.614;2023-01-19T10:39:55;6.10;99.90
52615;DHT22;38508;53.158;6.614;2023-01-19T10:42:21;6.30;99.90
52615;DHT22;38508;53.158;6.614;2023-01-19T10:44:48;6.20;99.90
52615;DHT22;38508;53.158;6.614;2023-01-19T10:47:19;6.30;99.90
52615;DHT22;38508;53.158;6.614;2023-01-19T10:49:46;6.60;99.90
52615;DHT22;38508;53.158;6.614;2023-01-19T10:54:51;6.40;99.90
52615;DHT22;38508;53.158;6.614;2023-01-19T10:57:30;6.30;99.90
52615;DHT22;38508;53.158;6.614;2023-01-19T10:59:56;6.30;99.90
52615;DHT22;38508;53.158;6.614;2023-01-19T11:02:24;6.40;99.90
52615;DHT22;38508;53.158;6.614;2023-01-19T11:05:01;6.40;99.90
52615;DHT22;38508;53.158;6.614;2023-01-19T11:07:45;6.30;99.90
52615;DHT22;38508;53.158;6.614;2023-01-19T11:10:21;6.50;99.90
52615;DHT22;38508;53.158;6.614;2023-01-19T11:13:04;6.60;99.90
52615;DHT22;38508;53.158;6.614;2023-01-19T11:15:58;6.70;99.90
52615;DHT22;38508;53.158;6.614;2023-01-19T11:18:30;6.80;99.90
52615;DHT22;38508;53.158;6.614;2023-01-19T11:21:10;6.80;99.90
52615;DHT22;38508;53.158;6.614;2023-01-19T11:23:57;6.90;99.90
52615;DHT22;38508;53.158;6.614;2023-01-19T11:26:43;6.90;99.90
52615;DHT22;38508;53.158;6.614;2023-01-19T11:29:24;6.90;99.90
52615;DHT22;38508;53.158;6.614;2023-01-19T11:31:51;6.90;99.90
52615;DHT22;38508;53.158;6.614;2023-01-19T11:34:22;7.10;99.90
52615;DHT22;38508;53.158;6.614;2023-01-19T11:36:56;7.40;99.90
52615;DHT22;38508;53.158;6.614;2023-01-19T11:39:30;7.40;99.90
52615;DHT22;38508;53.158;6.614;2023-01-19T11:42:00;7.60;99.90
52615;DHT22;38508;53.158;6.614;2023-01-19T11:44:35;7.60;99.90
52615;DHT22;38508;53.158;6.614;2023-01-19T11:47:15;7.60;99.90
52615;DHT22;38508;53.158;6.614;2023-01-19T11:54:59;7.70;99.90
52615;DHT22;38508;53.158;6.614;2023-01-19T11:57:26;8.00;99.90
52615;DHT22;38508;53.158;6.614;2023-01-19T11:59:53;8.20;99.90
52615;DHT22;38508;53.158;6.614;2023-01-19T12:02:31;8.30;99.90
52615;DHT22;38508;53.158;6.614;2023-01-19T12:05:08;8.40;99.90
52615;DHT22;38508;53.158;6.614;2023-01-19T12:07:37;8.20;99.20
52615;DHT22;38508;53.158;6.614;2023-01-19T12:12:44;8.30;99.50
52615;DHT22;38508;53.158;6.614;2023-01-19T12:17:59;8.40;98.40
52615;DHT22;38508;53.158;6.614;2023-01-19T12:20:34;8.40;97.90
52615;DHT22;38508;53.158;6.614;2023-01-19T12:25:53;8.20;97.80
52615;DHT22;38508;53.158;6.614;2023-01-19T12:28:27;8.00;98.20
52615;DHT22;38508;53.158;6.614;2023-01-19T12:30:56;8.10;98.50
52615;DHT22;38508;53.158;6.614;2023-01-19T12:38:46;7.70;98.50
52615;DHT22;38508;53.158;6.614;2023-01-19T12:46:52;7.40;98.90
52615;DHT22;38508;53.158;6.614;2023-01-19T12:49:38;7.40;98.80
52615;DHT22;38508;53.158;6.614;2023-01-19T13:00:41;8.20;97.60
52615;DHT22;38508;53.158;6.614;2023-01-19T13:13:41;7.20;97.30
52615;DHT22;38508;53.158;6.614;2023-01-19T13:21:10;7.00;98.30
52615;DHT22;38508;53.158;6.614;2023-01-19T13:26:21;8.00;98.10
52615;DHT22;38508;53.158;6.614;2023-01-19T13:29:02;8.60;97.40
52615;DHT22;38508;53.158;6.614;2023-01-19T13:31:35;8.90;97.00
52615;DHT22;38508;53.158;6.614;2023-01-19T13:34:03;8.90;97.20
52615;DHT22;38508;53.158;6.614;2023-01-19T13:36:35;8.60;97.10
52615;DHT22;38508;53.158;6.614;2023-01-19T13:39:14;8.70;97.40
52615;DHT22;38508;53.158;6.614;2023-01-19T13:41:42;9.40;97.40
52615;DHT22;38508;53.158;6.614;2023-01-19T13:44:31;9.80;97.00
52615;DHT22;38508;53.158;6.614;2023-01-19T13:47:02;10.20;96.90
52615;DHT22;38508;53.158;6.614;2023-01-19T13:49:35;9.80;96.50
52615;DHT22;38508;53.158;6.614;2023-01-19T13:52:22;9.40;97.00
52615;DHT22;38508;53.158;6.614;2023-01-19T13:54:59;9.00;97.50
52615;DHT22;38508;53.158;6.614;2023-01-19T14:05:32;7.70;98.40
52615;DHT22;38508;53.158;6.614;2023-01-19T14:08:11;7.70;98.50
52615;DHT22;38508;53.158;6.614;2023-01-19T14:10:42;7.70;98.80
52615;DHT22;38508;53.158;6.614;2023-01-19T14:13:14;7.60;98.90
52615;DHT22;38508;53.158;6.614;2023-01-19T14:15:41;7.50;98.90
52615;DHT22;38508;53.158;6.614;2023-01-19T14:18:31;7.30;99.10
52615;DHT22;38508;53.158;6.614;2023-01-19T14:21:13;7.20;99.40
52615;DHT22;38508;53.158;6.614;2023-01-19T14:29:27;7.00;99.90
52615;DHT22;38508;53.158;6.614;2023-01-19T14:32:23;6.80;99.90
52615;DHT22;38508;53.158;6.614;2023-01-19T14:39:59;6.40;99.90
52615;DHT22;38508;53.158;6.614;2023-01-19T14:42:34;6.30;99.90
52615;DHT22;38508;53.158;6.614;2023-01-19T14:45:04;6.00;99.90
52615;DHT22;38508;53.158;6.614;2023-01-19T14:47:38;5.80;99.90
52615;DHT22;38508;53.158;6.614;2023-01-19T14:52:46;6.00;99.90
52615;DHT22;38508;53.158;6.614;2023-01-19T14:55:19;5.90;99.90
52615;DHT22;38508;53.158;6.614;2023-01-19T14:57:46;6.00;99.90
52615;DHT22;38508;53.158;6.614;2023-01-19T15:00:15;5.90;99.90
52615;DHT22;38508;53.158;6.614;2023-01-19T15:02:42;5.80;99.90
52615;DHT22;38508;53.158;6.614;2023-01-19T15:05:09;5.70;99.90
52615;DHT22;38508;53.158;6.614;2023-01-19T15:07:37;5.70;99.90
52615;DHT22;38508;53.158;6.614;2023-01-19T15:10:04;5.90;99.90
52615;DHT22;38508;53.158;6.614;2023-01-19T15:12:29;5.80;99.90
52615;DHT22;38508;53.158;6.614;2023-01-19T15:14:56;5.70;99.90
52615;DHT22;38508;53.158;6.614;2023-01-19T15:17:21;5.70;99.90
52615;DHT22;38508;53.158;6.614;2023-01-19T15:19:53;5.70;99.90
52615;DHT22;38508;53.158;6.614;2023-01-19T15:22:20;5.60;99.90
52615;DHT22;38508;53.158;6.614;2023-01-19T15:24:47;5.70;99.90
52615;DHT22;38508;53.158;6.614;2023-01-19T15:27:14;5.90;99.90
52615;DHT22;38508;53.158;6.614;2023-01-19T15:29:40;6.00;99.90
52615;DHT22;38508;53.158;6.614;2023-01-19T15:32:12;5.90;99.90
52615;DHT22;38508;53.158;6.614;2023-01-19T15:34:39;5.80;99.90
52615;DHT22;38508;53.158;6.614;2023-01-19T15:37:05;5.80;99.90
52615;DHT22;38508;53.158;6.614;2023-01-19T15:39:30;5.80;99.90
52615;DHT22;38508;53.158;6.614;2023-01-19T15:41:56;5.80;99.90
52615;DHT22;38508;53.158;6.614;2023-01-19T15:44:22;5.80;99.90
52615;DHT22;38508;53.158;6.614;2023-01-19T15:46:48;5.70;99.90
52615;DHT22;38508;53.158;6.614;2023-01-19T15:49:14;5.70;99.90
52615;DHT22;38508;53.158;6.614;2023-01-19T15:51:39;5.70;99.90
52615;DHT22;38508;53.158;6.614;2023-01-19T15:54:07;5.90;99.90
52615;DHT22;38508;53.158;6.614;2023-01-19T15:56:34;5.90;99.90
52615;DHT22;38508;53.158;6.614;2023-01-19T15:59:00;5.80;99.90
52615;DHT22;38508;53.158;6.614;2023-01-19T16:01:27;5.70;99.90
52615;DHT22;38508;53.158;6.614;2023-01-19T16:04:01;5.80;99.90
52615;DHT22;38508;53.158;6.614;2023-01-19T16:06:28;5.70;99.90
52615;DHT22;38508;53.158;6.614;2023-01-19T16:08:55;5.50;99.90
52615;DHT22;38508;53.158;6.614;2023-01-19T16:11:26;5.50;99.90
52615;DHT22;38508;53.158;6.614;2023-01-19T16:13:53;5.60;99.90
52615;DHT22;38508;53.158;6.614;2023-01-19T16:16:21;5.60;99.90
52615;DHT22;38508;53.158;6.614;2023-01-19T16:18:47;5.70;99.90
52615;DHT22;38508;53.158;6.614;2023-01-19T16:21:13;5.60;99.90
52615;DHT22;38508;53.158;6.614;2023-01-19T16:23:38;5.70;99.90
52615;DHT22;38508;53.158;6.614;2023-01-19T16:26:07;5.60;99.90
52615;DHT22;38508;53.158;6.614;2023-01-19T16:28:46;5.70;99.90
52615;DHT22;38508;53.158;6.614;2023-01-19T16:31:14;5.60;99.90
52615;DHT22;38508;53.158;6.614;2023-01-19T16:33:41;5.50;99.90
52615;DHT22;38508;53.158;6.614;2023-01-19T16:38:43;5.50;99.90
52615;DHT22;38508;53.158;6.614;2023-01-19T16:41:09;5.50;99.90
52615;DHT22;38508;53.158;6.614;2023-01-19T16:43:34;5.50;99.90
52615;DHT22;38508;53.158;6.614;2023-01-19T16:46:01;5.60;99.90
52615;DHT22;38508;53.158;6.614;2023-01-19T16:48:29;5.50;99.90
52615;DHT22;38508;53.158;6.614;2023-01-19T16:51:04;5.10;99.90
52615;DHT22;38508;53.158;6.614;2023-01-19T16:53:31;5.20;99.90
52615;DHT22;38508;53.158;6.614;2023-01-19T16:56:06;5.00;99.90
52615;DHT22;38508;53.158;6.614;2023-01-19T16:58:32;4.80;99.90
52615;DHT22;38508;53.158;6.614;2023-01-19T17:00:58;4.70;99.90
52615;DHT22;38508;53.158;6.614;2023-01-19T17:03:24;4.80;99.90
52615;DHT22;38508;53.158;6.614;2023-01-19T17:05:51;4.90;99.90
52615;DHT22;38508;53.158;6.614;2023-01-19T17:08:18;4.90;99.90
52615;DHT22;38508;53.158;6.614;2023-01-19T17:10:45;4.80;99.90
52615;DHT22;38508;53.158;6.614;2023-01-19T17:13:10;4.90;99.90
52615;DHT22;38508;53.158;6.614;2023-01-19T17:15:36;4.80;99.90
52615;DHT22;38508;53.158;6.614;2023-01-19T17:18:02;4.70;99.90
52615;DHT22;38508;53.158;6.614;2023-01-19T17:20:27;4.80;99.90
52615;DHT22;38508;53.158;6.614;2023-01-19T17:22:53;4.70;99.90
52615;DHT22;38508;53.158;6.614;2023-01-19T17:25:20;4.70;99.90
52615;DHT22;38508;53.158;6.614;2023-01-19T17:27:46;4.60;99.90
52615;DHT22;38508;53.158;6.614;2023-01-19T17:30:11;4.60;99.90
52615;DHT22;38508;53.158;6.614;2023-01-19T17:32:37;4.60;99.90
52615;DHT22;38508;53.158;6.614;2023-01-19T17:35:03;4.50;99.90
52615;DHT22;38508;53.158;6.614;2023-01-19T17:37:29;4.50;99.90
52615;DHT22;38508;53.158;6.614;2023-01-19T17:39:54;4.50;99.90
52615;DHT22;38508;53.158;6.614;2023-01-19T17:42:20;4.50;99.90
52615;DHT22;38508;53.158;6.614;2023-01-19T17:44:46;4.40;99.90
52615;DHT22;38508;53.158;6.614;2023-01-19T17:47:11;4.40;99.90
52615;DHT22;38508;53.158;6.614;2023-01-19T17:49:37;4.40;99.90
52615;DHT22;38508;53.158;6.614;2023-01-19T17:52:03;4.50;99.90
52615;DHT22;38508;53.158;6.614;2023-01-19T17:54:28;4.40;99.90
52615;DHT22;38508;53.158;6.614;2023-01-19T17:56:54;4.40;99.90
52615;DHT22;38508;53.158;6.614;2023-01-19T17:59:20;4.30;99.90
52615;DHT22;38508;53.158;6.614;2023-01-19T18:01:46;4.30;99.90